createdAt,value
2023-02-06T00:00:28.566Z,13.10
2023-02-06T00:02:59.226Z,13.30
2023-02-06T00:05:29.260Z,13.70
2023-02-06T00:07:59.113Z,13.80
2023-02-06T00:10:29.464Z,13.20
2023-02-06T00:12:59.500Z,15.20
2023-02-06T00:15:29.544Z,16.60
2023-02-06T00:17:59.602Z,15.80
2023-02-06T00:20:29.902Z,16.70
2023-02-06T00:23:00.048Z,15.40
2023-02-06T00:25:30.101Z,15.00
2023-02-06T00:28:00.128Z,14.90
2023-02-06T00:30:30.287Z,15.40
2023-02-06T00:33:00.258Z,15.60
2023-02-06T00:35:30.877Z,15.00
2023-02-06T00:38:02.081Z,17.80
2023-02-06T00:40:32.258Z,19.10
2023-02-06T00:43:02.776Z,18.10
2023-02-06T00:45:33.307Z,14.10
2023-02-06T00:48:04.632Z,16.70
2023-02-06T00:50:34.791Z,24.80
2023-02-06T00:53:05.270Z,28.30
2023-02-06T00:55:35.596Z,24.40
2023-02-06T00:58:05.768Z,19.10
2023-02-06T01:00:35.970Z,17.10
2023-02-06T01:03:06.109Z,15.30
2023-02-06T01:05:36.298Z,14.10
2023-02-06T01:08:06.476Z,15.70
2023-02-06T01:10:36.607Z,14.10
2023-02-06T01:13:06.584Z,16.30
2023-02-06T01:15:37.729Z,19.30
2023-02-06T01:18:08.045Z,16.70
2023-02-06T01:20:39.762Z,14.50
2023-02-06T01:23:10.182Z,14.10
2023-02-06T01:25:40.489Z,15.60
2023-02-06T01:28:11.856Z,15.60
2023-02-06T01:31:02.196Z,14.80
2023-02-06T01:33:32.361Z,15.20
2023-02-06T01:36:02.611Z,23.50
2023-02-06T01:38:33.298Z,23.10
2023-02-06T01:41:04.669Z,20.50
2023-02-06T01:43:38.142Z,18.70
2023-02-06T01:46:09.089Z,17.40
2023-02-06T01:48:41.829Z,17.40
2023-02-06T01:51:17.544Z,16.40
2023-02-06T01:53:50.411Z,14.30
2023-02-06T01:56:21.601Z,11.10
2023-02-06T01:58:55.584Z,13.10
2023-02-06T02:01:26.361Z,12.80
2023-02-06T02:04:02.174Z,12.90
2023-02-06T02:06:33.021Z,13.30
2023-02-06T02:09:04.450Z,12.70
2023-02-06T02:11:37.766Z,13.00
2023-02-06T02:14:10.602Z,12.30
2023-02-06T02:16:51.757Z,13.50
2023-02-06T02:20:06.986Z,16.20
2023-02-06T02:22:52.337Z,14.30
2023-02-06T02:26:07.090Z,14.10
2023-02-06T02:29:26.815Z,19.40
2023-02-06T02:32:21.572Z,18.30
2023-02-06T02:35:07.838Z,16.80
2023-02-06T02:37:50.322Z,14.20
2023-02-06T02:40:27.241Z,15.70
2023-02-06T02:43:09.490Z,13.30
2023-02-06T02:45:46.620Z,13.50
2023-02-06T02:48:20.384Z,14.10
2023-02-06T02:53:19.935Z,12.90
2023-02-06T02:55:50.369Z,13.50
2023-02-06T02:58:27.454Z,13.40
2023-02-06T03:01:02.706Z,14.10
2023-02-06T03:03:35.424Z,13.30
2023-02-06T03:06:27.481Z,12.70
2023-02-06T03:09:04.037Z,12.90
2023-02-06T03:11:37.321Z,13.60
2023-02-06T03:14:16.681Z,12.80
2023-02-06T03:16:52.162Z,13.90
2023-02-06T03:19:28.209Z,13.00
2023-02-06T03:21:58.362Z,13.50
2023-02-06T03:24:33.102Z,13.60
2023-02-06T03:27:07.243Z,11.70
2023-02-06T03:29:41.494Z,12.80
2023-02-06T03:32:16.893Z,12.00
2023-02-06T03:34:54.008Z,13.40
2023-02-06T03:37:25.370Z,13.00
2023-02-06T03:39:57.871Z,12.60
2023-02-06T03:42:29.644Z,12.00
2023-02-06T03:45:02.742Z,12.20
2023-02-06T03:47:34.397Z,9.80
2023-02-06T03:50:06.718Z,12.80
2023-02-06T03:52:40.523Z,12.30
2023-02-06T03:55:14.233Z,11.20
2023-02-06T04:00:17.068Z,12.20
2023-02-06T04:02:48.090Z,14.00
2023-02-06T04:05:19.845Z,12.70
2023-02-06T04:07:52.497Z,11.20
2023-02-06T04:10:23.946Z,12.00
2023-02-06T04:12:55.516Z,9.50
2023-02-06T04:15:25.691Z,12.50
2023-02-06T04:18:01.307Z,13.60
2023-02-06T04:20:32.248Z,12.90
2023-02-06T04:23:02.178Z,12.80
2023-02-06T04:25:32.125Z,12.70
2023-02-06T04:28:02.309Z,12.00
2023-02-06T04:30:32.577Z,13.10
2023-02-06T04:33:02.706Z,15.50
2023-02-06T04:35:33.156Z,13.00
2023-02-06T04:38:03.656Z,11.60
2023-02-06T04:40:33.570Z,12.50
2023-02-06T04:43:03.610Z,12.00
2023-02-06T04:45:34.395Z,11.60
2023-02-06T04:48:05.058Z,12.20
2023-02-06T04:50:34.930Z,11.50
2023-02-06T04:53:04.708Z,12.70
2023-02-06T04:55:36.946Z,11.90
2023-02-06T04:58:07.167Z,12.60
2023-02-06T05:00:38.750Z,12.20
2023-02-06T05:03:08.791Z,12.80
2023-02-06T05:05:38.922Z,14.50
2023-02-06T05:08:08.852Z,12.00
2023-02-06T05:10:38.871Z,13.00
2023-02-06T05:13:08.983Z,13.10
2023-02-06T05:15:39.775Z,13.10
2023-02-06T05:18:10.105Z,14.70
2023-02-06T05:20:40.324Z,14.50
2023-02-06T05:23:10.650Z,13.00
2023-02-06T05:25:42.269Z,14.70
2023-02-06T05:28:12.652Z,14.50
2023-02-06T05:30:43.143Z,14.30
2023-02-06T05:33:13.404Z,13.60
2023-02-06T05:35:43.606Z,16.00
2023-02-06T05:38:14.413Z,14.80
2023-02-06T05:40:45.343Z,14.00
2023-02-06T05:43:15.543Z,15.20
2023-02-06T05:45:45.441Z,14.40
2023-02-06T05:48:15.444Z,14.50
2023-02-06T05:50:45.723Z,13.10
2023-02-06T05:53:18.162Z,14.70
2023-02-06T05:55:48.405Z,15.00
2023-02-06T05:58:18.760Z,14.50
2023-02-06T06:00:48.907Z,14.90
2023-02-06T06:03:19.617Z,15.60
2023-02-06T06:05:50.121Z,15.50
2023-02-06T06:08:20.484Z,15.70
2023-02-06T06:10:52.607Z,14.90
2023-02-06T06:13:22.757Z,15.50
2023-02-06T06:15:53.547Z,15.10
2023-02-06T06:18:23.956Z,15.80
2023-02-06T06:20:54.001Z,15.10
2023-02-06T06:23:23.914Z,15.90
2023-02-06T06:25:53.803Z,13.60
2023-02-06T06:28:23.817Z,14.10
2023-02-06T06:31:02.249Z,14.60
2023-02-06T06:33:32.620Z,14.60
2023-02-06T06:36:02.622Z,15.60
2023-02-06T06:38:32.845Z,15.30
2023-02-06T06:41:03.238Z,15.80
2023-02-06T06:43:33.175Z,16.00
2023-02-06T06:46:05.019Z,20.40
2023-02-06T06:48:36.992Z,25.90
2023-02-06T06:51:08.203Z,26.10
2023-02-06T06:53:39.769Z,23.50
2023-02-06T06:56:13.191Z,18.20
2023-02-06T06:58:43.599Z,16.80
2023-02-06T07:01:14.795Z,17.00
2023-02-06T07:03:47.063Z,14.60
2023-02-06T07:06:17.721Z,12.60
2023-02-06T07:08:47.719Z,13.10
2023-02-06T07:11:18.439Z,14.30
2023-02-06T07:13:49.299Z,14.10
2023-02-06T07:16:19.406Z,14.20
2023-02-06T07:18:49.493Z,16.10
2023-02-06T07:21:21.343Z,13.40
2023-02-06T07:23:51.319Z,13.40
2023-02-06T07:26:21.670Z,13.70
2023-02-06T07:28:52.533Z,13.80
2023-02-06T07:31:22.754Z,13.50
2023-02-06T07:33:53.029Z,14.30
2023-02-06T07:36:23.310Z,16.30
2023-02-06T07:38:53.699Z,14.60
2023-02-06T07:41:24.123Z,15.40
2023-02-06T07:43:54.990Z,15.00
2023-02-06T07:46:25.076Z,16.00
2023-02-06T07:48:55.209Z,14.30
2023-02-06T07:51:25.028Z,13.10
2023-02-06T07:53:55.755Z,15.40
2023-02-06T07:56:25.994Z,13.70
2023-02-06T07:58:56.558Z,14.50
2023-02-06T08:01:26.692Z,13.50
2023-02-06T08:03:57.050Z,13.20
2023-02-06T08:06:27.724Z,13.40
2023-02-06T08:08:58.455Z,13.60
2023-02-06T08:11:30.677Z,13.40
2023-02-06T08:14:02.774Z,12.10
2023-02-06T08:16:33.216Z,12.30
2023-02-06T08:19:03.790Z,13.00
2023-02-06T08:21:37.009Z,9.00
2023-02-06T08:24:07.761Z,10.20
2023-02-06T08:26:37.866Z,16.30
2023-02-06T08:29:08.934Z,10.90
2023-02-06T08:31:41.137Z,11.60
2023-02-06T08:34:14.924Z,11.80
2023-02-06T08:36:45.460Z,11.20
2023-02-06T08:39:17.190Z,11.10
2023-02-06T08:41:47.408Z,10.30
2023-02-06T08:44:19.349Z,10.60
2023-02-06T08:46:52.416Z,11.70
2023-02-06T08:49:27.379Z,13.80
2023-02-06T08:51:57.469Z,14.40
2023-02-06T08:54:27.400Z,14.00
2023-02-06T08:57:00.669Z,12.50
2023-02-06T08:59:30.776Z,9.90
2023-02-06T09:02:01.204Z,14.80
2023-02-06T09:04:34.263Z,14.10
2023-02-06T09:07:04.311Z,12.10
2023-02-06T09:09:34.487Z,12.40
2023-02-06T09:12:05.099Z,12.80
2023-02-06T09:14:35.582Z,17.30
2023-02-06T09:17:05.723Z,19.00
2023-02-06T09:19:35.693Z,11.90
2023-02-06T09:22:07.189Z,10.10
2023-02-06T09:24:37.765Z,24.70
2023-02-06T09:27:07.805Z,10.70
2023-02-06T09:29:37.758Z,11.20
2023-02-06T09:32:07.795Z,10.80
2023-02-06T09:34:37.835Z,11.50
2023-02-06T09:37:07.872Z,12.90
2023-02-06T09:39:38.143Z,16.70
2023-02-06T09:42:11.794Z,14.90
2023-02-06T09:44:48.796Z,19.50
2023-02-06T09:47:25.657Z,11.50
2023-02-06T09:49:59.055Z,10.90
2023-02-06T09:52:43.914Z,15.30
2023-02-06T09:55:23.499Z,12.90
2023-02-06T09:57:59.252Z,12.00
2023-02-06T10:00:41.355Z,11.40
2023-02-06T10:03:29.932Z,9.70
2023-02-06T10:06:11.904Z,10.30
2023-02-06T10:08:47.512Z,10.70
2023-02-06T10:11:25.695Z,9.30
2023-02-06T10:14:00.431Z,9.40
2023-02-06T10:16:39.222Z,8.60
2023-02-06T10:19:17.292Z,12.20
2023-02-06T10:21:52.582Z,11.30
2023-02-06T10:24:32.761Z,9.80
2023-02-06T10:27:09.763Z,11.40
2023-02-06T10:29:41.062Z,11.30
2023-02-06T10:32:23.710Z,9.60
2023-02-06T10:35:13.758Z,8.90
2023-02-06T10:38:20.400Z,8.40
2023-02-06T10:40:59.268Z,9.40
2023-02-06T10:43:39.498Z,8.90
2023-02-06T10:46:29.079Z,9.10
2023-02-06T10:49:05.404Z,8.20
2023-02-06T10:51:38.677Z,9.70
2023-02-06T10:54:16.609Z,9.00
2023-02-06T10:56:48.467Z,9.80
2023-02-06T10:59:26.771Z,10.40
2023-02-06T11:02:13.990Z,10.00
2023-02-06T11:04:49.241Z,9.70
2023-02-06T11:07:24.769Z,10.20
2023-02-06T11:09:55.076Z,8.80
2023-02-06T11:12:36.095Z,9.00
2023-02-06T11:15:18.149Z,11.70
2023-02-06T11:17:48.329Z,10.90
2023-02-06T11:20:22.895Z,10.50
2023-02-06T11:22:53.863Z,7.10
2023-02-06T11:25:28.721Z,6.40
2023-02-06T11:28:00.342Z,9.60
2023-02-06T11:30:34.907Z,6.70
2023-02-06T11:33:08.862Z,11.70
2023-02-06T11:35:49.713Z,6.60
2023-02-06T11:38:21.842Z,6.70
2023-02-06T11:41:00.823Z,6.20
2023-02-06T11:43:32.958Z,7.00
2023-02-06T11:46:16.451Z,8.00
2023-02-06T11:48:48.626Z,9.20
2023-02-06T11:51:19.321Z,8.10
2023-02-06T11:54:03.292Z,9.10
2023-02-06T11:59:22.748Z,6.40
2023-02-06T12:01:52.773Z,6.70
2023-02-06T12:04:26.465Z,7.00
2023-02-06T12:07:03.195Z,6.60
2023-02-06T12:09:33.550Z,6.80
2023-02-06T12:12:13.749Z,7.00
2023-02-06T12:14:48.190Z,7.60
2023-02-06T12:17:25.748Z,6.70
2023-02-06T12:20:03.202Z,6.70
2023-02-06T12:22:39.831Z,6.30
2023-02-06T12:25:25.199Z,6.10
2023-02-06T12:27:58.573Z,6.50
2023-02-06T12:30:35.560Z,6.30
2023-02-06T12:33:12.881Z,7.20
2023-02-06T12:35:46.121Z,7.10
2023-02-06T12:38:22.588Z,8.80
2023-02-06T12:41:03.596Z,8.40
2023-02-06T12:43:36.413Z,9.40
2023-02-06T12:46:13.977Z,8.30
2023-02-06T12:48:51.273Z,7.90
2023-02-06T12:51:26.700Z,11.50
2023-02-06T12:54:01.055Z,9.40
2023-02-06T12:56:36.022Z,8.50
2023-02-06T12:59:31.229Z,8.00
2023-02-06T13:02:16.383Z,8.20
2023-02-06T13:04:47.416Z,8.60
2023-02-06T13:07:21.924Z,8.50
2023-02-06T13:09:55.491Z,8.60
2023-02-06T13:12:27.847Z,10.00
2023-02-06T13:15:00.183Z,10.30
2023-02-06T13:17:36.459Z,8.90
2023-02-06T13:20:10.144Z,7.60
2023-02-06T13:22:46.670Z,8.70
2023-02-06T13:25:49.013Z,10.00
2023-02-06T13:29:08.077Z,7.50
2023-02-06T13:31:38.713Z,8.00
2023-02-06T13:34:14.371Z,8.70
2023-02-06T13:36:53.357Z,9.10
2023-02-06T13:39:34.918Z,10.90
2023-02-06T13:42:32.680Z,10.20
2023-02-06T13:45:06.558Z,12.40
2023-02-06T13:48:05.924Z,13.60
2023-02-06T13:50:54.526Z,12.80
2023-02-06T13:54:05.759Z,12.40
2023-02-06T13:56:47.933Z,11.50
2023-02-06T13:59:20.549Z,10.90
2023-02-06T14:01:50.737Z,14.70
2023-02-06T14:04:24.983Z,12.50
2023-02-06T14:07:27.000Z,32.50
2023-02-06T14:10:33.939Z,16.80
2023-02-06T14:13:20.092Z,10.80
2023-02-06T14:15:59.375Z,11.00
2023-02-06T14:18:43.178Z,10.50
2023-02-06T14:21:27.716Z,10.70
2023-02-06T14:24:10.575Z,10.80
2023-02-06T14:26:49.130Z,10.10
2023-02-06T14:29:28.604Z,10.50
2023-02-06T14:32:24.083Z,10.70
2023-02-06T14:35:15.200Z,9.20
2023-02-06T14:38:06.228Z,9.60
2023-02-06T14:40:42.156Z,10.60
2023-02-06T14:43:17.713Z,11.30
2023-02-06T14:46:05.399Z,14.20
2023-02-06T14:48:40.490Z,11.30
2023-02-06T14:51:22.478Z,9.40
2023-02-06T14:53:57.565Z,8.70
2023-02-06T14:56:31.014Z,11.30
2023-02-06T15:01:41.415Z,10.10
2023-02-06T15:04:13.514Z,10.20
2023-02-06T15:06:50.374Z,9.70
2023-02-06T15:09:29.497Z,8.90
2023-02-06T15:12:02.068Z,9.70
2023-02-06T15:14:35.042Z,10.10
2023-02-06T15:17:05.072Z,10.20
2023-02-06T15:19:36.247Z,15.30
2023-02-06T15:22:11.957Z,13.50
2023-02-06T15:25:06.999Z,11.10
2023-02-06T15:27:38.799Z,9.80
2023-02-06T15:30:21.672Z,10.00
2023-02-06T15:32:53.438Z,9.90
2023-02-06T15:35:26.028Z,8.80
2023-02-06T15:37:57.251Z,9.40
2023-02-06T15:40:31.096Z,9.60
2023-02-06T15:43:02.282Z,9.80
2023-02-06T15:45:36.073Z,9.90
2023-02-06T15:48:12.861Z,14.70
2023-02-06T15:50:54.540Z,12.20
2023-02-06T15:53:33.029Z,10.70
2023-02-06T15:56:04.940Z,10.60
2023-02-06T15:58:36.719Z,10.00
2023-02-06T16:01:13.972Z,10.80
2023-02-06T16:03:44.361Z,9.60
2023-02-06T16:06:17.822Z,9.60
2023-02-06T16:08:54.611Z,9.30
2023-02-06T16:11:47.005Z,10.10
2023-02-06T16:14:24.840Z,11.30
2023-02-06T16:17:02.632Z,11.20
2023-02-06T16:19:47.027Z,10.40
2023-02-06T16:22:22.690Z,10.30
2023-02-06T16:24:54.673Z,9.30
2023-02-06T16:27:26.831Z,10.30
2023-02-06T16:29:58.126Z,9.10
2023-02-06T16:32:31.393Z,9.20
2023-02-06T16:35:01.716Z,10.80
2023-02-06T16:37:32.140Z,11.40
2023-02-06T16:40:03.587Z,13.40
2023-02-06T16:42:37.780Z,15.40
2023-02-06T16:45:10.688Z,11.20
2023-02-06T16:47:42.088Z,11.50
2023-02-06T16:50:12.619Z,13.20
2023-02-06T16:52:47.911Z,12.80
2023-02-06T16:55:23.197Z,13.10
2023-02-06T16:57:57.270Z,14.70
2023-02-06T17:00:31.263Z,14.00
2023-02-06T17:03:01.788Z,13.60
2023-02-06T17:05:32.973Z,12.50
2023-02-06T17:08:04.346Z,13.90
2023-02-06T17:10:34.763Z,14.40
2023-02-06T17:13:06.432Z,18.60
2023-02-06T17:15:36.590Z,22.80
2023-02-06T17:18:07.073Z,16.30
2023-02-06T17:20:39.953Z,24.00
2023-02-06T17:23:11.273Z,21.70
2023-02-06T17:25:43.754Z,24.60
2023-02-06T17:28:33.812Z,24.20
2023-02-06T17:31:04.088Z,21.50
2023-02-06T17:33:34.289Z,27.90
2023-02-06T17:36:07.970Z,27.00
2023-02-06T17:38:37.946Z,32.00
2023-02-06T17:41:08.537Z,22.70
2023-02-06T17:43:38.541Z,29.30
2023-02-06T17:46:21.665Z,31.50
2023-02-06T17:48:55.488Z,35.60
2023-02-06T17:51:26.956Z,39.30
2023-02-06T17:54:00.144Z,35.90
2023-02-06T17:56:30.711Z,41.40
2023-02-06T17:59:21.165Z,37.70
2023-02-06T18:01:52.357Z,36.60
2023-02-06T18:04:25.718Z,37.60
2023-02-06T18:06:58.888Z,38.10
2023-02-06T18:09:29.683Z,35.00
2023-02-06T18:11:59.903Z,36.10
2023-02-06T18:14:31.542Z,32.70
2023-02-06T18:17:03.334Z,28.80
2023-02-06T18:19:41.084Z,27.70
2023-02-06T18:22:14.792Z,28.40
2023-02-06T18:24:56.635Z,31.20
2023-02-06T18:27:27.284Z,26.20
2023-02-06T18:29:57.375Z,25.20
2023-02-06T18:32:28.274Z,27.20
2023-02-06T18:34:59.976Z,27.20
2023-02-06T18:37:30.937Z,24.50
2023-02-06T18:40:04.108Z,25.60
2023-02-06T18:45:35.549Z,26.20
2023-02-06T18:48:14.224Z,24.80
2023-02-06T18:50:45.170Z,27.00
2023-02-06T18:53:18.871Z,25.90
2023-02-06T18:56:01.234Z,26.00
2023-02-06T18:58:34.562Z,28.00
2023-02-06T19:01:15.662Z,28.80
2023-02-06T19:03:50.053Z,35.50
2023-02-06T19:06:26.266Z,27.30
2023-02-06T19:08:59.396Z,26.10
2023-02-06T19:11:32.323Z,24.00
2023-02-06T19:14:05.742Z,19.10
2023-02-06T19:16:40.724Z,21.10
2023-02-06T19:19:12.954Z,20.90
2023-02-06T19:21:49.695Z,15.50
2023-02-06T19:24:23.950Z,20.60
2023-02-06T19:26:58.853Z,21.90
2023-02-06T19:29:35.997Z,19.80
2023-02-06T19:32:12.308Z,21.40
2023-02-06T19:34:45.851Z,21.70
2023-02-06T19:37:19.896Z,25.20
2023-02-06T19:39:51.046Z,25.30
2023-02-06T19:42:25.048Z,25.00
2023-02-06T19:45:01.736Z,24.70
2023-02-06T19:47:38.144Z,25.60
2023-02-06T19:50:25.998Z,28.20
2023-02-06T19:53:13.917Z,28.50
2023-02-06T19:55:52.497Z,29.40
2023-02-06T19:58:31.928Z,27.30
2023-02-06T20:01:09.697Z,32.30
2023-02-06T20:03:40.189Z,32.30
2023-02-06T20:06:12.183Z,38.10
2023-02-06T20:08:43.906Z,37.80
2023-02-06T20:11:16.886Z,36.40
2023-02-06T20:13:51.583Z,32.50
2023-02-06T20:16:25.428Z,32.30
2023-02-06T20:18:56.797Z,30.80
2023-02-06T20:21:31.107Z,25.70
2023-02-06T20:24:03.493Z,23.00
2023-02-06T20:26:35.601Z,23.50
2023-02-06T20:29:06.707Z,22.80
2023-02-06T20:31:37.575Z,25.10
2023-02-06T20:34:07.585Z,23.80
2023-02-06T20:36:37.796Z,25.80
2023-02-06T20:39:08.801Z,23.80
2023-02-06T20:41:39.247Z,23.00
2023-02-06T20:44:17.932Z,26.80
2023-02-06T20:46:51.315Z,22.70
2023-02-06T20:49:23.267Z,24.80
2023-02-06T20:51:57.372Z,25.00
2023-02-06T20:54:31.592Z,22.80
2023-02-06T20:57:04.824Z,24.60
2023-02-06T20:59:35.321Z,18.30
2023-02-06T21:02:05.654Z,23.80
2023-02-06T21:04:35.623Z,21.90
2023-02-06T21:07:05.883Z,22.20
2023-02-06T21:09:36.321Z,24.70
2023-02-06T21:12:07.312Z,27.20
2023-02-06T21:14:37.627Z,26.80
2023-02-06T21:17:08.063Z,24.10
2023-02-06T21:19:38.564Z,19.20
2023-02-06T21:22:08.711Z,17.00
2023-02-06T21:24:40.359Z,15.20
2023-02-06T21:27:10.936Z,16.30
2023-02-06T21:29:41.401Z,15.90
2023-02-06T21:32:14.307Z,13.00
2023-02-06T21:34:44.956Z,11.60
2023-02-06T21:37:15.039Z,15.80
2023-02-06T21:39:45.348Z,15.00
2023-02-06T21:42:15.758Z,14.80
2023-02-06T21:44:45.853Z,18.10
2023-02-06T21:47:15.930Z,15.30
2023-02-06T21:49:46.434Z,14.80
2023-02-06T21:52:17.127Z,15.70
2023-02-06T21:54:47.139Z,16.20
2023-02-06T21:57:17.380Z,17.60
2023-02-06T21:59:47.307Z,18.60
2023-02-06T22:02:17.533Z,18.10
2023-02-06T22:04:47.989Z,17.50
2023-02-06T22:07:19.380Z,17.30
2023-02-06T22:09:49.589Z,18.20
2023-02-06T22:12:21.509Z,18.90
2023-02-06T22:14:51.689Z,17.60
2023-02-06T22:17:21.429Z,19.00
2023-02-06T22:19:53.141Z,20.50
2023-02-06T22:22:23.350Z,18.40
2023-02-06T22:24:53.953Z,18.60
2023-02-06T22:27:25.245Z,17.90
2023-02-06T22:29:55.359Z,16.70
2023-02-06T22:32:25.597Z,18.70
2023-02-06T22:34:58.454Z,21.00
2023-02-06T22:37:30.909Z,14.90
2023-02-06T22:40:01.040Z,16.00
2023-02-06T22:42:31.373Z,16.10
2023-02-06T22:45:01.696Z,15.60
2023-02-06T22:47:32.874Z,16.40
2023-02-06T22:50:02.967Z,15.30
2023-02-06T22:52:50.805Z,15.90
2023-02-06T22:55:20.828Z,15.90
2023-02-06T22:57:50.733Z,15.90
2023-02-06T23:00:21.382Z,15.80
2023-02-06T23:02:51.375Z,18.40
2023-02-06T23:05:21.689Z,16.70
2023-02-06T23:07:51.566Z,18.10
2023-02-06T23:10:21.682Z,18.20
2023-02-06T23:12:51.748Z,18.40
2023-02-06T23:15:21.938Z,16.00
2023-02-06T23:17:52.419Z,16.30
2023-02-06T23:20:22.569Z,17.00
2023-02-06T23:22:52.447Z,16.50
2023-02-06T23:25:22.469Z,17.60
2023-02-06T23:27:52.671Z,20.00
2023-02-06T23:30:23.460Z,22.10
2023-02-06T23:32:53.465Z,21.60
2023-02-06T23:35:23.318Z,21.80
2023-02-06T23:37:53.446Z,25.00
2023-02-06T23:40:23.238Z,24.50
2023-02-06T23:42:53.736Z,29.50
2023-02-06T23:45:23.915Z,27.10
2023-02-06T23:47:54.796Z,26.20
2023-02-06T23:50:25.729Z,24.50
2023-02-06T23:52:56.265Z,30.10
2023-02-06T23:55:28.101Z,22.10
2023-02-06T23:57:58.618Z,20.00
